createdAt,value
2022-12-26T00:06:00.422Z,12.60
2022-12-26T00:16:08.097Z,12.50
2022-12-26T00:26:15.183Z,12.51
2022-12-26T00:36:21.243Z,12.44
2022-12-26T00:46:28.030Z,12.46
2022-12-26T00:56:31.377Z,12.38
2022-12-26T01:06:35.787Z,12.33
2022-12-26T01:16:39.267Z,12.27
2022-12-26T01:26:43.781Z,12.25
2022-12-26T01:36:46.870Z,12.29
2022-12-26T01:46:52.841Z,12.30
2022-12-26T01:56:56.402Z,12.31
2022-12-26T02:07:01.839Z,12.38
2022-12-26T02:17:05.612Z,12.41
2022-12-26T02:27:23.560Z,12.43
2022-12-26T02:37:42.392Z,12.45
2022-12-26T02:47:55.848Z,12.44
2022-12-26T02:58:24.162Z,12.42
2022-12-26T03:08:50.795Z,12.39
2022-12-26T03:19:00.922Z,12.34
2022-12-26T03:29:19.193Z,12.40
2022-12-26T03:39:50.163Z,12.25
2022-12-26T03:50:20.378Z,12.25
2022-12-26T04:00:48.180Z,12.25
2022-12-26T04:11:13.700Z,12.19
2022-12-26T04:21:39.822Z,12.18
2022-12-26T04:32:06.257Z,12.22
2022-12-26T04:42:30.698Z,12.22
2022-12-26T04:52:47.843Z,12.17
2022-12-26T05:03:16.265Z,12.18
2022-12-26T05:13:21.405Z,12.04
2022-12-26T05:23:46.030Z,11.86
2022-12-26T05:34:07.638Z,11.74
2022-12-26T05:44:12.545Z,11.83
2022-12-26T05:54:15.524Z,11.84
2022-12-26T06:04:20.052Z,11.80
2022-12-26T06:14:23.196Z,11.71
2022-12-26T06:24:27.530Z,11.78
2022-12-26T06:34:30.845Z,11.70
2022-12-26T06:44:34.877Z,11.38
2022-12-26T06:54:37.706Z,10.92
2022-12-26T07:04:42.338Z,11.16
2022-12-26T07:14:45.427Z,11.39
2022-12-26T07:24:49.876Z,11.45
2022-12-26T07:34:52.918Z,11.42
2022-12-26T07:44:57.282Z,11.26
2022-12-26T07:55:00.310Z,11.34
2022-12-26T08:05:06.670Z,11.15
2022-12-26T08:15:12.817Z,11.09
2022-12-26T08:25:20.221Z,11.18
2022-12-26T08:35:25.063Z,11.24
2022-12-26T08:45:29.551Z,11.34
2022-12-26T08:55:32.628Z,11.38
2022-12-26T09:05:36.959Z,11.44
2022-12-26T09:15:39.979Z,11.63
2022-12-26T09:25:44.472Z,11.69
2022-12-26T09:35:48.370Z,11.82
2022-12-26T09:46:06.092Z,11.81
2022-12-26T09:56:36.983Z,11.76
2022-12-26T10:06:42.640Z,11.90
2022-12-26T10:16:54.334Z,11.81
2022-12-26T10:27:04.491Z,11.90
2022-12-26T10:37:16.096Z,11.89
2022-12-26T10:47:25.828Z,11.95
2022-12-26T10:57:32.047Z,12.02
2022-12-26T11:07:39.021Z,12.20
2022-12-26T11:17:45.873Z,12.26
2022-12-26T11:27:52.642Z,12.26
2022-12-26T11:37:58.807Z,12.22
2022-12-26T11:48:03.803Z,12.24
2022-12-26T11:58:19.303Z,12.15
2022-12-26T12:08:35.156Z,12.03
2022-12-26T12:18:50.299Z,12.01
2022-12-26T12:29:22.997Z,11.95
2022-12-26T12:39:39.107Z,12.10
2022-12-26T12:49:59.125Z,12.06
2022-12-26T13:00:14.232Z,12.40
2022-12-26T13:10:24.425Z,12.01
2022-12-26T13:20:34.713Z,11.73
2022-12-26T13:30:39.895Z,11.62
2022-12-26T13:40:47.570Z,11.73
2022-12-26T13:50:56.217Z,11.60
2022-12-26T14:01:07.857Z,11.60
2022-12-26T14:11:27.620Z,10.80
2022-12-26T14:21:40.502Z,10.08
2022-12-26T14:31:52.356Z,10.05
2022-12-26T14:42:35.869Z,10.05
2022-12-26T14:52:41.373Z,10.07
2022-12-26T15:02:49.179Z,10.19
2022-12-26T15:13:41.799Z,9.72
2022-12-26T15:24:13.832Z,9.27
2022-12-26T15:34:37.136Z,9.24
2022-12-26T15:44:50.454Z,9.09
2022-12-26T15:55:16.059Z,9.27
2022-12-26T16:05:38.859Z,9.01
2022-12-26T16:15:49.837Z,8.78
2022-12-26T16:25:55.882Z,8.60
2022-12-26T16:36:01.360Z,8.50
2022-12-26T16:46:08.042Z,8.38
2022-12-26T16:56:32.888Z,8.23
2022-12-26T17:06:38.282Z,8.28
2022-12-26T17:16:42.794Z,8.08
2022-12-26T17:26:52.438Z,7.98
2022-12-26T17:37:20.192Z,8.14
2022-12-26T17:47:26.150Z,7.90
2022-12-26T17:57:31.071Z,7.82
2022-12-26T18:07:34.129Z,7.76
2022-12-26T18:17:38.966Z,7.53
2022-12-26T18:27:42.325Z,7.40
2022-12-26T18:37:50.988Z,7.51
2022-12-26T18:47:53.972Z,7.50
2022-12-26T18:57:58.868Z,6.93
2022-12-26T19:08:02.965Z,6.86
2022-12-26T19:18:07.480Z,6.66
2022-12-26T19:28:10.637Z,6.92
2022-12-26T19:38:15.033Z,6.36
2022-12-26T19:48:18.072Z,6.24
2022-12-26T19:58:22.603Z,6.07
2022-12-26T20:08:25.864Z,6.09
2022-12-26T20:18:30.073Z,6.23
2022-12-26T20:28:33.955Z,7.66
2022-12-26T20:38:39.063Z,5.89
2022-12-26T20:48:42.516Z,6.19
2022-12-26T20:58:47.060Z,5.79
2022-12-26T21:08:51.768Z,5.96
2022-12-26T21:18:56.347Z,6.09
2022-12-26T21:29:01.167Z,5.94
2022-12-26T21:39:10.250Z,6.07
2022-12-26T21:49:13.195Z,5.89
2022-12-26T21:59:35.305Z,5.65
2022-12-26T22:09:38.351Z,5.68
2022-12-26T22:19:42.922Z,5.76
2022-12-26T22:29:46.145Z,5.59
2022-12-26T22:39:50.541Z,5.55
2022-12-26T22:49:53.799Z,5.45
2022-12-26T23:00:14.225Z,5.52
2022-12-26T23:10:21.567Z,5.40
2022-12-26T23:20:47.699Z,5.17
2022-12-26T23:30:50.849Z,5.19
2022-12-26T23:40:55.100Z,5.00
2022-12-26T23:51:05.289Z,5.19
